Time;durP1;ratioP1;P1;durP2;ratioP2;P2;SDS_P1;SDS_P2;PMS_P1;PMS_P2;Temp;Humidity;BMP_temperature;BMP_pressure;BME280_temperature;BME280_humidity;BME280_pressure;Samples;Min_cycle;Max_cycle;Signal;HPM_P1;HPM_P2
2023/12/03 00:00:41;;;;;;;11.10;6.47;;;-2.90;99.90;;;;;;5006484;28;20453;-58
2023/12/03 00:03:08;;;;;;;13.57;5.67;;;-3.00;99.90;;;;;;5006130;28;20211;-58
2023/12/03 00:05:36;;;;;;;10.43;5.73;;;-3.00;99.90;;;;;;5005064;28;20632;-57
2023/12/03 00:08:02;;;;;;;9.30;6.20;;;-2.90;99.90;;;;;;5004845;28;20472;-58
2023/12/03 00:10:28;;;;;;;7.80;4.70;;;-2.90;99.90;;;;;;5009407;28;20475;-58
2023/12/03 00:12:54;;;;;;;10.80;6.80;;;-3.00;99.90;;;;;;4999634;28;20483;-58
2023/12/03 00:15:19;;;;;;;11.67;5.73;;;-3.00;99.90;;;;;;5002639;28;20433;-59
2023/12/03 00:17:45;;;;;;;11.77;5.90;;;-2.90;99.90;;;;;;5010627;28;20196;-58
2023/12/03 00:20:11;;;;;;;9.73;5.97;;;-2.90;99.90;;;;;;5006226;28;20178;-59
2023/12/03 00:22:37;;;;;;;9.10;6.23;;;-2.90;99.90;;;;;;5004721;28;20239;-58
2023/12/03 00:25:03;;;;;;;9.20;6.00;;;-2.90;99.90;;;;;;5006405;28;20428;-58
2023/12/03 00:27:28;;;;;;;9.93;6.30;;;-2.90;99.90;;;;;;5001691;28;20687;-58
2023/12/03 00:29:54;;;;;;;7.73;5.47;;;-3.00;99.90;;;;;;5010283;28;21003;-59
2023/12/03 00:32:19;;;;;;;8.83;5.73;;;-2.90;99.90;;;;;;4998852;28;20275;-57
2023/12/03 00:34:45;;;;;;;9.07;5.60;;;-2.90;99.90;;;;;;5007769;28;20275;-58
2023/12/03 00:37:11;;;;;;;9.50;5.47;;;-2.90;99.90;;;;;;5005882;28;20220;-58
2023/12/03 00:39:37;;;;;;;7.67;5.00;;;-3.00;99.90;;;;;;5008442;28;20593;-57
2023/12/03 00:42:03;;;;;;;7.03;4.97;;;-3.00;99.90;;;;;;5005584;28;20445;-58
2023/12/03 00:44:28;;;;;;;9.23;5.87;;;-3.00;99.90;;;;;;5004594;28;20210;-58
2023/12/03 00:46:54;;;;;;;8.07;4.90;;;-3.00;99.90;;;;;;5004224;28;20675;-58
2023/12/03 00:49:19;;;;;;;8.87;5.77;;;-3.00;99.90;;;;;;5004713;28;20174;-58
2023/12/03 00:51:45;;;;;;;9.27;5.50;;;-3.00;99.90;;;;;;4997487;28;20173;-58
2023/12/03 00:54:11;;;;;;;9.30;5.47;;;-3.00;99.90;;;;;;5010514;28;20680;-56
2023/12/03 00:56:36;;;;;;;8.00;5.10;;;-3.00;99.90;;;;;;5005407;28;20265;-57
2023/12/03 00:59:02;;;;;;;8.13;5.50;;;-3.00;99.90;;;;;;5003751;28;20193;-57
2023/12/03 01:01:28;;;;;;;6.93;4.87;;;-3.00;99.90;;;;;;5002790;28;20185;-58
2023/12/03 01:03:54;;;;;;;10.70;5.20;;;-3.00;99.90;;;;;;5001794;28;20201;-59
2023/12/03 01:06:19;;;;;;;7.27;5.07;;;-3.00;99.90;;;;;;5005702;28;20445;-57
2023/12/03 01:08:45;;;;;;;7.23;4.30;;;-3.10;99.90;;;;;;5003758;28;20241;-58
2023/12/03 01:11:11;;;;;;;6.90;4.70;;;-3.10;99.90;;;;;;5008282;28;20230;-57
2023/12/03 01:13:37;;;;;;;10.77;5.80;;;-3.10;99.90;;;;;;5003211;28;20201;-57
2023/12/03 01:16:03;;;;;;;7.90;5.60;;;-3.10;99.90;;;;;;5008708;28;20673;-57
2023/12/03 01:18:28;;;;;;;9.33;5.30;;;-3.10;99.90;;;;;;5008181;28;20176;-57
2023/12/03 01:20:54;;;;;;;11.33;6.00;;;-3.10;99.90;;;;;;5007812;28;20803;-58
2023/12/03 01:23:20;;;;;;;11.40;6.10;;;-3.10;99.90;;;;;;5006121;28;20203;-58
2023/12/03 01:25:45;;;;;;;8.23;5.00;;;-3.10;99.90;;;;;;5007532;28;20185;-58
2023/12/03 01:28:11;;;;;;;7.90;5.40;;;-3.10;99.90;;;;;;5007044;28;20198;-57
2023/12/03 01:30:36;;;;;;;8.40;5.17;;;-3.10;99.90;;;;;;5002850;28;20953;-58
2023/12/03 01:33:02;;;;;;;9.33;5.60;;;-3.10;99.90;;;;;;5009771;28;20221;-57
2023/12/03 01:35:28;;;;;;;9.17;5.20;;;-3.10;99.90;;;;;;5010205;28;20586;-58
2023/12/03 01:37:53;;;;;;;8.00;5.53;;;-3.20;99.90;;;;;;5008088;28;20681;-58
2023/12/03 01:40:19;;;;;;;7.83;5.30;;;-3.10;99.90;;;;;;5008799;28;20194;-58
2023/12/03 01:42:45;;;;;;;11.03;5.60;;;-3.20;99.90;;;;;;5003534;28;20254;-58
2023/12/03 01:45:11;;;;;;;11.93;6.07;;;-3.20;99.90;;;;;;5004524;28;20173;-58
2023/12/03 01:47:37;;;;;;;9.83;5.43;;;-3.20;99.90;;;;;;5016511;28;20468;-57
2023/12/03 01:50:07;;;;;;;7.43;5.03;;;-3.30;99.90;;;;;;5014451;28;20451;-58
2023/12/03 01:52:36;;;;;;;10.20;5.40;;;-3.30;99.90;;;;;;5003008;28;20412;-57
2023/12/03 01:55:05;;;;;;;8.47;5.20;;;-3.20;99.90;;;;;;4997769;28;21125;-57
2023/12/03 01:57:31;;;;;;;10.07;5.80;;;-3.30;99.90;;;;;;5007808;28;20434;-57
2023/12/03 01:59:57;;;;;;;11.07;6.00;;;-3.30;99.90;;;;;;5008726;28;20524;-58
2023/12/03 02:02:23;;;;;;;8.93;5.30;;;-3.30;99.90;;;;;;5002112;28;20530;-55
2023/12/03 02:04:48;;;;;;;9.67;5.47;;;-3.30;99.90;;;;;;5009013;28;20198;-57
2023/12/03 02:07:14;;;;;;;11.33;6.57;;;-3.40;99.90;;;;;;5007039;28;20481;-57
2023/12/03 02:09:41;;;;;;;10.70;5.70;;;-3.40;99.90;;;;;;5008254;28;20201;-58
2023/12/03 02:12:07;;;;;;;10.93;5.97;;;-3.40;99.90;;;;;;5002342;28;20228;-58
2023/12/03 02:14:33;;;;;;;11.10;6.90;;;-3.50;99.90;;;;;;5005330;28;20446;-57
2023/12/03 02:16:59;;;;;;;9.57;5.40;;;-3.50;99.90;;;;;;5009365;28;20820;-56
2023/12/03 02:19:24;;;;;;;10.40;5.90;;;-3.60;99.90;;;;;;5007005;28;20178;-57
2023/12/03 02:21:50;;;;;;;10.30;5.73;;;-3.70;99.90;;;;;;5008294;28;20861;-58
2023/12/03 02:24:15;;;;;;;9.70;5.90;;;-3.70;99.90;;;;;;5008945;28;20205;-57
2023/12/03 02:26:41;;;;;;;9.20;5.20;;;-3.80;99.90;;;;;;5010228;28;20226;-58
2023/12/03 02:29:07;;;;;;;8.20;5.63;;;-3.80;99.90;;;;;;5000111;28;20209;-57
2023/12/03 02:31:32;;;;;;;12.10;6.67;;;-3.90;99.90;;;;;;5011260;28;20256;-57
2023/12/03 02:34:08;;;;;;;10.50;6.40;;;-3.90;99.90;;;;;;5010039;28;20195;-58
2023/12/03 02:36:34;;;;;;;13.30;6.87;;;-4.00;99.90;;;;;;5005190;28;20304;-58
2023/12/03 02:39:00;;;;;;;9.80;5.40;;;-4.00;99.90;;;;;;5009086;28;20544;-57
2023/12/03 02:41:26;;;;;;;10.03;5.23;;;-4.10;99.90;;;;;;5008523;28;20480;-57
2023/12/03 02:43:51;;;;;;;12.33;6.20;;;-4.10;99.90;;;;;;5004557;28;20495;-57
2023/12/03 02:46:17;;;;;;;9.43;6.37;;;-4.10;99.90;;;;;;5014181;28;20259;-58
2023/12/03 02:48:42;;;;;;;10.70;6.30;;;-4.20;99.90;;;;;;5011536;28;20214;-58
2023/12/03 02:51:09;;;;;;;10.37;5.70;;;-4.20;99.90;;;;;;5003919;28;20182;-58
2023/12/03 02:53:38;;;;;;;11.73;6.27;;;-4.20;99.90;;;;;;5008023;28;20195;-57
2023/12/03 02:56:05;;;;;;;8.80;5.93;;;-4.20;99.90;;;;;;5009192;28;21066;-57
2023/12/03 02:58:30;;;;;;;10.40;6.40;;;-4.20;99.90;;;;;;5003381;28;20442;-58
2023/12/03 03:00:56;;;;;;;14.00;6.63;;;-4.20;99.90;;;;;;5000230;28;20934;-57
2023/12/03 03:03:22;;;;;;;13.20;6.77;;;-4.30;99.90;;;;;;4999937;28;20224;-57
2023/12/03 03:05:47;;;;;;;9.77;4.97;;;-4.30;99.90;;;;;;5008509;28;20205;-58
2023/12/03 03:08:13;;;;;;;9.73;5.63;;;-4.40;99.90;;;;;;5005041;28;20201;-58
2023/12/03 03:10:39;;;;;;;9.60;5.37;;;-4.50;99.90;;;;;;5005433;28;20229;-57
2023/12/03 03:13:04;;;;;;;10.97;6.20;;;-4.60;99.90;;;;;;5001028;28;20205;-57
2023/12/03 03:15:30;;;;;;;11.27;5.87;;;-4.60;99.90;;;;;;5009056;28;20207;-57
2023/12/03 03:17:55;;;;;;;11.23;6.07;;;-4.70;99.90;;;;;;5006818;28;20178;-58
2023/12/03 03:20:22;;;;;;;9.30;5.80;;;-4.70;99.90;;;;;;5001865;28;20184;-58
2023/12/03 03:22:48;;;;;;;11.30;6.03;;;-4.70;99.90;;;;;;5008365;28;20281;-55
2023/12/03 03:25:14;;;;;;;10.07;5.70;;;-4.80;99.90;;;;;;5008514;28;20409;-56
2023/12/03 03:27:40;;;;;;;9.13;5.60;;;-4.80;99.90;;;;;;5004079;28;20697;-56
2023/12/03 03:30:07;;;;;;;9.97;5.83;;;-4.90;99.90;;;;;;5005996;28;20549;-56
2023/12/03 03:32:32;;;;;;;10.13;5.20;;;-5.00;99.90;;;;;;5001247;28;20186;-56
2023/12/03 03:34:58;;;;;;;9.70;5.43;;;-5.00;99.90;;;;;;5002395;28;21066;-57
2023/12/03 03:37:24;;;;;;;15.53;6.17;;;-5.10;99.90;;;;;;5003715;28;20658;-57
2023/12/03 03:39:49;;;;;;;8.33;5.33;;;-5.10;99.90;;;;;;5009672;28;20250;-56
2023/12/03 03:42:15;;;;;;;12.83;5.77;;;-5.10;99.90;;;;;;5000565;28;20244;-57
2023/12/03 03:44:41;;;;;;;10.90;5.80;;;-5.10;99.90;;;;;;5008224;28;20196;-57
2023/12/03 03:47:07;;;;;;;7.63;5.27;;;-5.20;99.90;;;;;;5004389;28;20668;-57
2023/12/03 03:49:33;;;;;;;11.97;5.83;;;-5.20;99.90;;;;;;5007440;28;20175;-57
2023/12/03 03:51:58;;;;;;;8.87;5.27;;;-5.20;99.90;;;;;;5002563;28;20420;-58
2023/12/03 03:54:24;;;;;;;9.37;5.20;;;-5.20;99.90;;;;;;5001780;28;20198;-58
2023/12/03 03:56:49;;;;;;;9.80;4.67;;;-5.10;99.90;;;;;;5005105;28;20333;-57
2023/12/03 03:59:15;;;;;;;8.67;5.13;;;-5.10;99.90;;;;;;5005750;28;20689;-58
2023/12/03 04:01:44;;;;;;;8.07;4.70;;;-5.10;99.90;;;;;;5002791;28;20178;-57
2023/12/03 04:04:11;;;;;;;9.00;5.33;;;-5.00;99.90;;;;;;5004739;28;20201;-58
2023/12/03 04:06:39;;;;;;;7.67;4.80;;;-5.00;99.90;;;;;;5003608;28;20880;-57
2023/12/03 04:09:04;;;;;;;8.70;4.93;;;-5.00;99.90;;;;;;5006558;28;20475;-58
2023/12/03 04:11:30;;;;;;;8.83;5.03;;;-5.00;99.90;;;;;;5003723;28;20414;-58
2023/12/03 04:13:56;;;;;;;12.10;5.47;;;-5.10;99.90;;;;;;5002672;28;20283;-57
2023/12/03 04:16:24;;;;;;;8.50;5.00;;;-5.10;99.90;;;;;;5005798;28;20189;-57
2023/12/03 04:18:50;;;;;;;8.13;4.60;;;-5.10;99.90;;;;;;5004181;28;20530;-57
2023/12/03 04:21:16;;;;;;;8.60;4.73;;;-5.20;99.90;;;;;;5003031;28;20440;-57
2023/12/03 04:23:41;;;;;;;8.80;5.13;;;-5.30;99.90;;;;;;5001669;28;20692;-57
2023/12/03 04:26:07;;;;;;;9.97;5.30;;;-5.40;99.90;;;;;;5006334;28;20190;-57
2023/12/03 04:28:33;;;;;;;8.33;5.50;;;-5.40;99.90;;;;;;4999694;28;20209;-58
2023/12/03 04:30:59;;;;;;;12.40;6.27;;;-5.50;99.90;;;;;;5004460;28;20495;-57
2023/12/03 04:33:24;;;;;;;5.53;4.10;;;-5.60;99.90;;;;;;4999005;28;20201;-57
2023/12/03 04:35:50;;;;;;;9.80;5.40;;;-5.60;99.90;;;;;;5019271;28;20950;-58
2023/12/03 04:38:15;;;;;;;7.13;4.30;;;-5.70;99.90;;;;;;5010016;28;20683;-56
2023/12/03 04:40:41;;;;;;;9.23;4.77;;;-5.70;99.90;;;;;;5007726;28;20192;-56
2023/12/03 04:43:07;;;;;;;7.50;5.50;;;-5.70;99.90;;;;;;5005146;28;20293;-57
2023/12/03 04:45:32;;;;;;;10.00;5.83;;;-5.80;99.90;;;;;;5004541;28;20199;-57
2023/12/03 04:47:58;;;;;;;6.37;4.30;;;-5.80;99.90;;;;;;5005478;28;20205;-57
2023/12/03 04:50:23;;;;;;;11.50;5.80;;;-5.90;99.90;;;;;;5006118;28;20178;-57
2023/12/03 04:52:49;;;;;;;8.77;5.40;;;-5.90;99.90;;;;;;5009859;28;20206;-57
2023/12/03 04:55:14;;;;;;;6.50;4.53;;;-6.00;99.90;;;;;;5009535;28;21158;-57
2023/12/03 04:57:40;;;;;;;8.87;4.60;;;-6.00;99.90;;;;;;5005719;28;20243;-58
2023/12/03 05:00:07;;;;;;;10.43;5.10;;;-6.10;99.90;;;;;;5006288;28;20178;-56
2023/12/03 05:02:32;;;;;;;7.97;4.67;;;-6.10;99.90;;;;;;5008871;28;20253;-57
2023/12/03 05:04:58;;;;;;;9.67;4.90;;;-6.20;99.90;;;;;;5010091;28;20499;-57
2023/12/03 05:07:24;;;;;;;12.50;6.80;;;-6.20;99.90;;;;;;5002291;28;20213;-57
2023/12/03 05:09:49;;;;;;;8.77;4.77;;;-6.30;99.90;;;;;;5011010;28;20186;-58
2023/12/03 05:12:15;;;;;;;10.07;4.90;;;-6.30;99.90;;;;;;5003154;28;20194;-57
2023/12/03 05:14:40;;;;;;;6.90;4.43;;;-6.40;99.90;;;;;;5006555;28;20280;-58
2023/12/03 05:17:06;;;;;;;7.57;4.60;;;-6.40;99.90;;;;;;5007259;28;20198;-56
2023/12/03 05:19:31;;;;;;;9.63;4.93;;;-6.50;99.90;;;;;;5000565;28;20177;-57
2023/12/03 05:21:57;;;;;;;11.60;5.63;;;-6.60;99.90;;;;;;5007239;28;20194;-57
2023/12/03 05:24:23;;;;;;;11.03;6.13;;;-6.60;99.90;;;;;;5005681;28;20675;-58
2023/12/03 05:26:48;;;;;;;10.67;5.60;;;-6.70;99.90;;;;;;5002071;28;20261;-57
2023/12/03 05:29:14;;;;;;;13.80;6.30;;;-6.70;99.90;;;;;;5007162;28;20217;-58
2023/12/03 05:31:46;;;;;;;11.73;5.97;;;-6.80;99.90;;;;;;5007011;28;20417;-58
2023/12/03 05:34:11;;;;;;;11.50;5.63;;;-6.80;99.90;;;;;;5006781;28;20197;-58
2023/12/03 05:36:37;;;;;;;9.50;6.00;;;-6.80;99.90;;;;;;5004150;28;20428;-57
2023/12/03 05:39:04;;;;;;;8.80;5.00;;;-6.80;99.90;;;;;;5008074;28;20197;-58
2023/12/03 05:41:29;;;;;;;12.07;6.20;;;-6.80;99.90;;;;;;5004948;28;20186;-58
2023/12/03 05:43:55;;;;;;;11.73;6.10;;;-6.90;99.90;;;;;;5007472;28;20454;-58
2023/12/03 05:46:20;;;;;;;9.03;5.30;;;-6.90;99.90;;;;;;4998833;28;20173;-58
2023/12/03 05:48:46;;;;;;;10.60;5.27;;;-6.90;99.90;;;;;;5004937;28;20205;-58
2023/12/03 05:51:11;;;;;;;10.77;5.40;;;-6.90;99.90;;;;;;4996691;28;20186;-57
2023/12/03 05:53:37;;;;;;;9.23;5.40;;;-6.90;99.90;;;;;;5005924;28;20715;-59
2023/12/03 05:56:03;;;;;;;11.40;5.33;;;-6.90;99.90;;;;;;5004718;28;20196;-57
2023/12/03 05:58:29;;;;;;;10.07;5.43;;;-6.90;99.90;;;;;;5002929;28;20236;-58
2023/12/03 06:00:55;;;;;;;8.00;4.70;;;-6.90;99.90;;;;;;5007239;28;20243;-58
2023/12/03 06:03:20;;;;;;;13.07;4.85;;;-7.00;99.90;;;;;;5006943;28;20193;-58
2023/12/03 06:05:46;;;;;;;11.47;5.80;;;-7.10;99.90;;;;;;5005126;28;20699;-57
2023/12/03 06:08:11;;;;;;;9.90;5.67;;;-7.10;99.90;;;;;;5002510;28;20209;-57
2023/12/03 06:10:37;;;;;;;17.43;9.00;;;-7.20;99.90;;;;;;5007621;28;20173;-58
2023/12/03 06:13:02;;;;;;;18.63;9.83;;;-7.20;99.90;;;;;;5007938;28;20539;-57
2023/12/03 06:15:28;;;;;;;13.63;7.13;;;-7.30;99.90;;;;;;5002037;28;20174;-58
2023/12/03 06:17:53;;;;;;;9.63;5.57;;;-7.30;99.90;;;;;;5011960;28;20213;-58
2023/12/03 06:20:19;;;;;;;10.67;5.70;;;-7.40;99.90;;;;;;5007783;28;20185;-57
2023/12/03 06:22:45;;;;;;;12.03;5.97;;;-7.40;99.90;;;;;;5003615;28;20180;-58
2023/12/03 06:25:10;;;;;;;8.70;5.57;;;-7.50;99.90;;;;;;5006724;28;20678;-58
2023/12/03 06:27:36;;;;;;;12.23;5.73;;;-7.60;99.90;;;;;;5007898;28;20213;-57
2023/12/03 06:30:01;;;;;;;8.70;4.70;;;-7.60;99.90;;;;;;5006469;28;20760;-56
2023/12/03 06:32:27;;;;;;;11.33;5.90;;;-7.60;99.90;;;;;;5002541;28;20180;-57
2023/12/03 06:34:53;;;;;;;9.97;5.90;;;-7.60;99.90;;;;;;5004994;28;20218;-57
2023/12/03 06:37:19;;;;;;;10.23;5.53;;;-7.60;99.90;;;;;;5008016;28;20189;-57
2023/12/03 06:39:44;;;;;;;9.47;4.60;;;-7.60;99.90;;;;;;5005236;28;20244;-58
2023/12/03 06:42:10;;;;;;;9.57;5.57;;;-7.60;99.90;;;;;;4999334;28;20183;-58
2023/12/03 06:44:36;;;;;;;13.33;5.53;;;-7.60;99.90;;;;;;5006056;28;20197;-58
2023/12/03 06:47:03;;;;;;;10.83;5.70;;;-7.60;99.90;;;;;;5007125;28;20219;-58
2023/12/03 06:49:28;;;;;;;12.98;6.82;;;-7.70;99.90;;;;;;5004077;28;20174;-58
2023/12/03 06:51:54;;;;;;;12.13;6.67;;;-7.80;99.90;;;;;;5005370;28;20176;-58
2023/12/03 06:54:19;;;;;;;11.97;6.30;;;-7.80;99.90;;;;;;5009163;28;20730;-57
2023/12/03 06:56:45;;;;;;;8.67;4.80;;;-7.80;99.90;;;;;;5004960;28;20203;-58
2023/12/03 06:59:10;;;;;;;10.67;5.50;;;-7.80;99.90;;;;;;4999339;28;20208;-58
2023/12/03 07:01:36;;;;;;;12.30;5.73;;;-7.80;99.90;;;;;;5013402;28;20178;-57
2023/12/03 07:04:02;;;;;;;9.80;5.60;;;-7.80;99.90;;;;;;5006246;28;20764;-55
2023/12/03 07:06:28;;;;;;;8.93;5.37;;;-7.80;99.90;;;;;;5007232;28;20185;-57
2023/12/03 07:08:54;;;;;;;11.65;5.60;;;-7.80;99.90;;;;;;5006508;28;20204;-58
2023/12/03 07:11:19;;;;;;;10.43;5.57;;;-7.80;99.90;;;;;;5001150;28;20173;-57
2023/12/03 07:13:45;;;;;;;11.90;6.33;;;-7.80;99.90;;;;;;5008224;28;20580;-57
2023/12/03 07:16:11;;;;;;;11.23;6.00;;;-7.80;99.90;;;;;;5005376;28;20608;-57
2023/12/03 07:18:40;;;;;;;9.37;6.27;;;-7.90;99.90;;;;;;5008174;28;20176;-57
2023/12/03 07:21:06;;;;;;;13.63;6.13;;;-7.90;99.90;;;;;;5001243;28;20205;-56
2023/12/03 07:23:32;;;;;;;8.60;5.40;;;-7.90;99.90;;;;;;5004067;28;20231;-57
2023/12/03 07:25:57;;;;;;;13.97;6.80;;;-7.90;99.90;;;;;;5006528;28;20516;-57
2023/12/03 07:28:23;;;;;;;11.93;5.83;;;-7.90;99.90;;;;;;5005728;28;20455;-58
2023/12/03 07:30:49;;;;;;;8.97;5.53;;;-7.90;99.90;;;;;;5007604;28;20180;-57
2023/12/03 07:33:14;;;;;;;13.77;6.27;;;-7.90;99.90;;;;;;5003649;28;20264;-58
2023/12/03 07:35:40;;;;;;;11.20;5.90;;;-7.90;99.90;;;;;;5002084;28;20231;-58
2023/12/03 07:38:05;;;;;;;8.70;6.07;;;-7.90;99.90;;;;;;5006229;28;20208;-58
2023/12/03 07:40:31;;;;;;;11.90;6.03;;;-7.90;99.90;;;;;;5006239;28;20184;-58
2023/12/03 07:42:57;;;;;;;14.77;6.00;;;-7.80;99.90;;;;;;5003062;28;20229;-59
2023/12/03 07:45:22;;;;;;;11.00;6.47;;;-7.80;99.90;;;;;;5003453;28;20263;-58
2023/12/03 07:47:48;;;;;;;12.97;5.90;;;-7.80;99.90;;;;;;5009142;28;20199;-58
2023/12/03 07:50:14;;;;;;;11.83;5.53;;;-7.80;99.90;;;;;;5013034;28;20179;-58
2023/12/03 07:52:39;;;;;;;10.37;5.60;;;-7.70;99.90;;;;;;5003291;28;20234;-57
2023/12/03 07:55:06;;;;;;;13.60;7.07;;;-7.80;99.90;;;;;;5003890;28;20203;-57
2023/12/03 07:57:32;;;;;;;12.18;6.45;;;-7.80;99.90;;;;;;5011173;28;20187;-58
2023/12/03 07:59:58;;;;;;;14.43;7.37;;;-7.90;99.90;;;;;;4994719;28;20189;-58
2023/12/03 08:02:23;;;;;;;16.13;7.40;;;-8.00;99.90;;;;;;4995755;28;20172;-58
2023/12/03 08:04:49;;;;;;;12.27;6.73;;;-8.00;99.90;;;;;;5002278;28;20201;-57
2023/12/03 08:07:14;;;;;;;13.03;6.70;;;-7.90;99.90;;;;;;5002174;28;20211;-57
2023/12/03 08:09:40;;;;;;;15.23;6.57;;;-7.90;99.90;;;;;;4997612;28;20172;-56
2023/12/03 08:12:06;;;;;;;17.70;7.67;;;-7.80;99.90;;;;;;5005685;28;20184;-58
2023/12/03 08:14:31;;;;;;;14.63;7.67;;;-7.80;99.90;;;;;;5002231;28;20277;-58
2023/12/03 08:16:57;;;;;;;17.90;8.80;;;-7.70;99.90;;;;;;5004737;28;20182;-58
2023/12/03 08:19:22;;;;;;;22.83;9.00;;;-7.70;99.90;;;;;;5002935;28;20608;-58
2023/12/03 08:21:48;;;;;;;22.27;9.30;;;-7.80;99.90;;;;;;5005564;28;20176;-58
2023/12/03 08:24:14;;;;;;;19.00;9.23;;;-7.70;99.90;;;;;;5000588;28;20259;-59
2023/12/03 08:26:40;;;;;;;21.17;9.80;;;-7.70;99.90;;;;;;5003553;28;20271;-58
2023/12/03 08:29:06;;;;;;;22.57;9.83;;;-7.60;99.90;;;;;;4999299;28;20465;-56
2023/12/03 08:31:32;;;;;;;28.73;13.50;;;-7.50;99.90;;;;;;5005426;28;20395;-58
2023/12/03 08:33:58;;;;;;;24.33;13.40;;;-7.50;99.90;;;;;;5003979;28;20197;-59
2023/12/03 08:36:24;;;;;;;25.40;12.63;;;-7.40;99.90;;;;;;5007345;28;20204;-61
2023/12/03 08:38:50;;;;;;;29.13;14.05;;;-7.40;99.90;;;;;;5006375;28;20658;-58
2023/12/03 08:41:16;;;;;;;31.13;13.80;;;-7.30;99.90;;;;;;4996035;28;20194;-61
2023/12/03 08:43:41;;;;;;;29.60;14.43;;;-7.20;99.90;;;;;;5000183;28;20225;-57
2023/12/03 08:46:08;;;;;;;33.00;14.90;;;-7.10;99.90;;;;;;5007664;28;20189;-58
2023/12/03 08:48:33;;;;;;;28.15;14.48;;;-7.00;99.90;;;;;;5006003;28;20204;-58
2023/12/03 08:50:59;;;;;;;30.90;14.37;;;-6.90;99.90;;;;;;5000423;28;20223;-59
2023/12/03 08:53:24;;;;;;;24.47;11.50;;;-6.90;99.90;;;;;;5008883;28;20193;-59
2023/12/03 08:55:50;;;;;;;23.63;12.07;;;-6.80;99.90;;;;;;5008805;28;20200;-58
2023/12/03 08:58:16;;;;;;;22.40;10.40;;;-6.80;99.90;;;;;;5006989;28;20180;-59
2023/12/03 09:00:42;;;;;;;20.60;10.47;;;-6.80;99.90;;;;;;5000845;28;20173;-57
2023/12/03 09:03:07;;;;;;;17.30;8.90;;;-6.80;99.90;;;;;;4998669;28;20259;-59
2023/12/03 09:05:33;;;;;;;21.70;9.57;;;-6.80;99.90;;;;;;5003929;28;20558;-58
2023/12/03 09:07:59;;;;;;;16.90;9.60;;;-6.80;99.90;;;;;;5007805;28;20197;-57
2023/12/03 09:10:24;;;;;;;23.23;11.02;;;-6.80;99.90;;;;;;5007627;28;20722;-57
2023/12/03 09:12:51;;;;;;;21.50;11.07;;;-6.70;99.90;;;;;;5006351;28;20169;-58
2023/12/03 09:15:17;;;;;;;22.20;11.35;;;-6.70;99.90;;;;;;5013192;28;20174;-59
2023/12/03 09:17:43;;;;;;;24.20;11.63;;;-6.60;99.90;;;;;;5006528;28;20188;-58
2023/12/03 09:20:08;;;;;;;32.03;11.87;;;-6.50;99.90;;;;;;5004841;28;20168;-58
2023/12/03 09:22:34;;;;;;;27.37;11.37;;;-6.50;99.90;;;;;;5005463;28;20183;-57
2023/12/03 09:25:00;;;;;;;28.73;10.80;;;-6.40;99.90;;;;;;5007429;28;20755;-56
2023/12/03 09:27:25;;;;;;;32.87;13.37;;;-6.40;99.90;;;;;;5001261;28;20426;-58
2023/12/03 09:29:51;;;;;;;40.53;16.37;;;-6.30;99.90;;;;;;5006112;28;20185;-60
2023/12/03 09:32:17;;;;;;;36.10;17.00;;;-6.40;99.90;;;;;;5002492;28;20176;-60
2023/12/03 09:34:42;;;;;;;28.60;14.03;;;-6.40;99.90;;;;;;5004838;28;20209;-59
2023/12/03 09:37:08;;;;;;;26.80;12.73;;;-6.40;99.90;;;;;;5004520;28;20189;-59
2023/12/03 09:39:33;;;;;;;31.17;14.27;;;-6.30;99.90;;;;;;5000677;28;20644;-59
2023/12/03 09:42:02;;;;;;;30.07;13.40;;;-6.10;99.90;;;;;;5006399;28;20363;-59
2023/12/03 09:44:37;;;;;;;27.30;14.10;;;-6.00;99.90;;;;;;5007284;28;20708;-61
2023/12/03 09:47:05;;;;;;;21.25;12.32;;;-5.90;99.90;;;;;;5005178;28;20181;-57
2023/12/03 09:49:31;;;;;;;25.13;12.73;;;-5.90;99.90;;;;;;5009235;28;20227;-59
2023/12/03 09:52:00;;;;;;;25.50;13.43;;;-5.70;99.90;;;;;;5002192;28;20438;-60
2023/12/03 09:54:26;;;;;;;34.50;15.70;;;-5.70;99.90;;;;;;5002980;28;20906;-59
2023/12/03 09:56:58;;;;;;;28.73;15.80;;;-5.60;99.90;;;;;;5002619;28;20890;-59
2023/12/03 09:59:26;;;;;;;29.00;14.83;;;-5.60;99.90;;;;;;4996116;28;20419;-61
2023/12/03 10:01:55;;;;;;;28.45;15.02;;;-5.60;99.90;;;;;;5002382;28;20428;-59
2023/12/03 10:04:20;;;;;;;21.83;12.00;;;-5.60;99.90;;;;;;4999132;28;20205;-59
2023/12/03 10:06:48;;;;;;;21.20;11.50;;;-5.60;99.90;;;;;;5001315;28;20436;-58
2023/12/03 10:09:14;;;;;;;30.40;13.27;;;-5.60;99.90;;;;;;5000029;28;20205;-55
2023/12/03 10:11:41;;;;;;;26.73;12.68;;;-5.50;99.90;;;;;;5002343;28;20431;-55
2023/12/03 10:14:12;;;;;;;23.03;12.40;;;-5.50;99.90;;;;;;5003525;28;20209;-56
2023/12/03 10:16:38;;;;;;;25.43;10.23;;;-5.50;99.90;;;;;;4997685;28;20471;-58
2023/12/03 10:19:04;;;;;;;17.77;9.25;;;-5.40;99.90;;;;;;5001349;28;20413;-57
2023/12/03 10:21:30;;;;;;;22.60;11.30;;;-5.40;99.90;;;;;;4997072;28;20178;-60
2023/12/03 10:24:00;;;;;;;24.10;10.20;;;-5.30;99.90;;;;;;4999676;28;20461;-59
2023/12/03 10:26:26;;;;;;;22.30;10.17;;;-5.20;99.90;;;;;;5001424;28;20188;-59
2023/12/03 10:28:52;;;;;;;19.33;10.50;;;-5.00;99.90;;;;;;4998582;28;20431;-60
2023/12/03 10:31:18;;;;;;;23.70;10.60;;;-5.00;99.90;;;;;;4999524;28;20182;-59
2023/12/03 10:33:45;;;;;;;19.70;9.90;;;-4.80;99.90;;;;;;4999195;28;20426;-59
2023/12/03 10:36:11;;;;;;;21.70;10.20;;;-4.70;99.90;;;;;;4995857;28;20219;-59
2023/12/03 10:38:41;;;;;;;22.83;10.40;;;-4.60;99.90;;;;;;5001499;28;20575;-59
2023/12/03 10:41:09;;;;;;;20.23;10.40;;;-4.60;99.90;;;;;;5018332;28;20950;-59
2023/12/03 10:43:37;;;;;;;20.73;10.30;;;-4.50;99.90;;;;;;5005462;28;20441;-59
2023/12/03 10:46:08;;;;;;;23.70;12.07;;;-4.50;99.90;;;;;;5005174;28;20960;-59
2023/12/03 10:48:34;;;;;;;20.97;11.93;;;-4.40;99.90;;;;;;4992615;28;20458;-60
2023/12/03 10:51:04;;;;;;;30.63;12.20;;;-4.30;99.90;;;;;;4999870;28;20444;-60
2023/12/03 10:53:35;;;;;;;24.37;12.90;;;-4.30;99.90;;;;;;5002978;28;20865;-60
2023/12/03 10:56:03;;;;;;;27.90;13.43;;;-4.30;99.90;;;;;;4998607;28;20432;-59
2023/12/03 10:58:31;;;;;;;28.57;13.70;;;-4.20;99.90;;;;;;4996194;28;20448;-60
2023/12/03 11:01:05;;;;;;;26.63;14.23;;;-4.10;99.90;;;;;;4997450;28;21394;-60
2023/12/03 11:03:45;;;;;;;34.53;14.73;;;-4.00;99.90;;;;;;4999451;28;20471;-59
2023/12/03 11:06:14;;;;;;;25.90;13.67;;;-4.00;99.90;;;;;;4999347;28;21067;-60
2023/12/03 11:08:40;;;;;;;26.50;13.50;;;-3.90;99.90;;;;;;5003401;28;20460;-60
2023/12/03 11:11:11;;;;;;;28.00;14.43;;;-3.90;99.90;;;;;;4996496;28;20567;-57
2023/12/03 11:13:36;;;;;;;29.73;15.33;;;-3.80;99.90;;;;;;5000488;28;21033;-60
2023/12/03 11:16:05;;;;;;;25.93;13.23;;;-3.80;99.90;;;;;;4999310;28;20436;-58
2023/12/03 11:18:32;;;;;;;30.97;14.40;;;-3.80;99.90;;;;;;4999022;28;20437;-61
2023/12/03 11:21:09;;;;;;;29.33;13.53;;;-3.70;99.90;;;;;;4996633;28;20583;-59
2023/12/03 11:23:59;;;;;;;26.33;13.30;;;-3.70;99.90;;;;;;4998962;28;20451;-59
2023/12/03 11:26:25;;;;;;;22.77;12.07;;;-3.60;99.90;;;;;;5002645;28;20429;-60
2023/12/03 11:28:51;;;;;;;25.40;12.57;;;-3.50;99.90;;;;;;4993089;28;20483;-58
2023/12/03 11:31:17;;;;;;;28.17;14.90;;;-3.50;99.90;;;;;;5000112;28;20434;-60
2023/12/03 11:33:56;;;;;;;28.63;13.73;;;-3.40;99.90;;;;;;5001528;28;20996;-60
2023/12/03 11:36:35;;;;;;;24.70;13.40;;;-3.30;99.90;;;;;;5003867;28;20687;-61
2023/12/03 11:39:02;;;;;;;29.37;14.40;;;-3.30;99.90;;;;;;5004240;28;20496;-59
2023/12/03 11:41:35;;;;;;;29.47;15.40;;;-3.30;99.90;;;;;;5002569;28;20433;-61
2023/12/03 11:44:20;;;;;;;30.57;14.83;;;-3.20;99.90;;;;;;4999963;28;20500;-59
2023/12/03 11:46:50;;;;;;;31.27;16.27;;;-3.20;99.90;;;;;;4999044;28;20819;-59
2023/12/03 11:49:17;;;;;;;28.63;15.50;;;-3.20;99.90;;;;;;5002280;28;20465;-60
2023/12/03 11:51:46;;;;;;;31.60;17.20;;;-3.20;99.90;;;;;;4993585;28;20447;-60
2023/12/03 11:54:20;;;;;;;33.50;16.70;;;-3.20;99.90;;;;;;5003092;28;20460;-60
2023/12/03 11:56:45;;;;;;;25.07;13.00;;;-3.20;99.90;;;;;;4997107;28;21009;-57
2023/12/03 11:59:14;;;;;;;26.60;12.27;;;-3.10;99.90;;;;;;4996808;28;20502;-56
2023/12/03 12:01:39;;;;;;;24.07;11.70;;;-3.20;99.90;;;;;;4993016;28;20438;-56
2023/12/03 12:04:05;;;;;;;25.23;12.10;;;-3.20;99.90;;;;;;5002930;28;20462;-58
2023/12/03 12:06:32;;;;;;;23.77;12.90;;;-3.20;99.90;;;;;;4998051;28;20190;-58
2023/12/03 12:08:58;;;;;;;26.47;12.60;;;-3.20;99.90;;;;;;5001271;28;20212;-60
2023/12/03 12:11:24;;;;;;;24.40;12.93;;;-3.20;99.90;;;;;;5003613;28;20511;-59
2023/12/03 12:13:50;;;;;;;22.13;12.17;;;-3.20;99.90;;;;;;4999704;28;20229;-60
2023/12/03 12:16:16;;;;;;;20.60;11.30;;;-3.20;99.90;;;;;;4992505;28;20523;-57
2023/12/03 12:18:42;;;;;;;24.50;11.37;;;-3.20;99.90;;;;;;4994993;28;20198;-59
2023/12/03 12:21:10;;;;;;;27.07;12.60;;;-3.20;99.90;;;;;;4996454;28;20535;-59
2023/12/03 12:23:36;;;;;;;19.80;10.83;;;-3.20;99.90;;;;;;4998865;28;20274;-58
2023/12/03 12:26:02;;;;;;;22.27;11.73;;;-3.20;99.90;;;;;;5001895;28;20998;-58
2023/12/03 12:28:28;;;;;;;20.83;11.83;;;-3.20;99.90;;;;;;4999305;28;20558;-59
2023/12/03 12:30:55;;;;;;;23.43;11.63;;;-3.20;99.90;;;;;;4999951;28;20884;-58
2023/12/03 12:33:21;;;;;;;22.67;12.63;;;-3.20;99.90;;;;;;4995768;28;20206;-58